sensor_id;sensor_type;location;lat;lon;timestamp;P1;durP1;ratioP1;P2;durP2;ratioP2
30096;SDS011;16915;51.466;3.610;2023-03-23T00:01:21;3.10;;;1.30;;
30096;SDS011;16915;51.466;3.610;2023-03-23T00:03:48;2.30;;;1.17;;
30096;SDS011;16915;51.466;3.610;2023-03-23T00:06:16;1.35;;;0.82;;
30096;SDS011;16915;51.466;3.610;2023-03-23T00:08:43;2.53;;;1.10;;
30096;SDS011;16915;51.466;3.610;2023-03-23T00:11:14;3.30;;;1.30;;
30096;SDS011;16915;51.466;3.610;2023-03-23T00:13:43;2.58;;;1.25;;
30096;SDS011;16915;51.466;3.610;2023-03-23T00:16:10;2.42;;;1.02;;
30096;SDS011;16915;51.466;3.610;2023-03-23T00:18:49;5.72;;;1.30;;
30096;SDS011;16915;51.466;3.610;2023-03-23T00:21:19;3.75;;;1.20;;
30096;SDS011;16915;51.466;3.610;2023-03-23T00:23:50;1.42;;;1.30;;
30096;SDS011;16915;51.466;3.610;2023-03-23T00:26:16;2.80;;;1.10;;
30096;SDS011;16915;51.466;3.610;2023-03-23T00:28:43;2.08;;;1.17;;
30096;SDS011;16915;51.466;3.610;2023-03-23T00:31:11;4.88;;;1.38;;
30096;SDS011;16915;51.466;3.610;2023-03-23T00:33:38;2.10;;;1.00;;
30096;SDS011;16915;51.466;3.610;2023-03-23T00:36:05;1.98;;;1.20;;
30096;SDS011;16915;51.466;3.610;2023-03-23T00:38:35;3.40;;;1.08;;
30096;SDS011;16915;51.466;3.610;2023-03-23T00:41:02;3.78;;;1.20;;
30096;SDS011;16915;51.466;3.610;2023-03-23T00:43:28;2.10;;;1.20;;
30096;SDS011;16915;51.466;3.610;2023-03-23T00:45:55;2.90;;;1.30;;
30096;SDS011;16915;51.466;3.610;2023-03-23T00:48:22;4.22;;;1.08;;
30096;SDS011;16915;51.466;3.610;2023-03-23T00:50:49;1.10;;;1.00;;
30096;SDS011;16915;51.466;3.610;2023-03-23T00:53:15;1.23;;;1.10;;
30096;SDS011;16915;51.466;3.610;2023-03-23T00:55:44;2.45;;;1.10;;
30096;SDS011;16915;51.466;3.610;2023-03-23T00:58:11;2.63;;;1.40;;
30096;SDS011;16915;51.466;3.610;2023-03-23T01:00:38;2.15;;;1.20;;
30096;SDS011;16915;51.466;3.610;2023-03-23T01:03:05;4.38;;;1.30;;
30096;SDS011;16915;51.466;3.610;2023-03-23T01:05:34;1.55;;;0.95;;
30096;SDS011;16915;51.466;3.610;2023-03-23T01:08:02;3.53;;;1.63;;
30096;SDS011;16915;51.466;3.610;2023-03-23T01:10:29;2.33;;;1.60;;
30096;SDS011;16915;51.466;3.610;2023-03-23T01:12:59;3.15;;;1.25;;
30096;SDS011;16915;51.466;3.610;2023-03-23T01:15:28;2.10;;;1.63;;
30096;SDS011;16915;51.466;3.610;2023-03-23T01:17:54;4.93;;;1.70;;
30096;SDS011;16915;51.466;3.610;2023-03-23T01:20:21;2.67;;;1.30;;
30096;SDS011;16915;51.466;3.610;2023-03-23T01:22:46;4.20;;;1.58;;
30096;SDS011;16915;51.466;3.610;2023-03-23T01:25:12;3.55;;;1.48;;
30096;SDS011;16915;51.466;3.610;2023-03-23T01:27:39;2.75;;;1.38;;
30096;SDS011;16915;51.466;3.610;2023-03-23T01:30:05;3.40;;;1.30;;
30096;SDS011;16915;51.466;3.610;2023-03-23T01:32:35;5.43;;;1.38;;
30096;SDS011;16915;51.466;3.610;2023-03-23T01:35:01;4.72;;;1.20;;
30096;SDS011;16915;51.466;3.610;2023-03-23T01:37:26;3.00;;;0.93;;
30096;SDS011;16915;51.466;3.610;2023-03-23T01:39:53;2.63;;;1.10;;
30096;SDS011;16915;51.466;3.610;2023-03-23T01:42:23;3.42;;;1.33;;
30096;SDS011;16915;51.466;3.610;2023-03-23T01:47:16;2.50;;;1.05;;
30096;SDS011;16915;51.466;3.610;2023-03-23T01:49:45;4.55;;;1.60;;
30096;SDS011;16915;51.466;3.610;2023-03-23T01:52:15;4.43;;;1.17;;
30096;SDS011;16915;51.466;3.610;2023-03-23T01:54:48;5.53;;;1.20;;
30096;SDS011;16915;51.466;3.610;2023-03-23T01:57:16;3.97;;;1.17;;
30096;SDS011;16915;51.466;3.610;2023-03-23T01:59:44;1.42;;;1.20;;
30096;SDS011;16915;51.466;3.610;2023-03-23T02:02:12;3.13;;;1.30;;
30096;SDS011;16915;51.466;3.610;2023-03-23T02:04:40;1.88;;;1.15;;
30096;SDS011;16915;51.466;3.610;2023-03-23T02:07:06;7.35;;;1.40;;
30096;SDS011;16915;51.466;3.610;2023-03-23T02:09:32;2.67;;;1.10;;
30096;SDS011;16915;51.466;3.610;2023-03-23T02:11:58;3.72;;;1.20;;
30096;SDS011;16915;51.466;3.610;2023-03-23T02:14:24;3.40;;;1.10;;
30096;SDS011;16915;51.466;3.610;2023-03-23T02:19:35;5.55;;;1.40;;
30096;SDS011;16915;51.466;3.610;2023-03-23T02:36:03;5.45;;;1.10;;
30096;SDS011;16915;51.466;3.610;2023-03-23T02:41:21;8.07;;;1.20;;
30096;SDS011;16915;51.466;3.610;2023-03-23T02:43:49;2.92;;;0.90;;
30096;SDS011;16915;51.466;3.610;2023-03-23T02:46:16;5.03;;;0.90;;
30096;SDS011;16915;51.466;3.610;2023-03-23T02:48:44;4.07;;;0.90;;
30096;SDS011;16915;51.466;3.610;2023-03-23T02:51:13;7.00;;;0.98;;
30096;SDS011;16915;51.466;3.610;2023-03-23T02:53:40;2.70;;;1.08;;
30096;SDS011;16915;51.466;3.610;2023-03-23T02:56:08;2.70;;;1.00;;
30096;SDS011;16915;51.466;3.610;2023-03-23T02:58:35;4.93;;;1.02;;
30096;SDS011;16915;51.466;3.610;2023-03-23T03:04:03;5.97;;;1.10;;
30096;SDS011;16915;51.466;3.610;2023-03-23T03:06:46;6.53;;;1.00;;
30096;SDS011;16915;51.466;3.610;2023-03-23T03:10:37;3.67;;;0.98;;
30096;SDS011;16915;51.466;3.610;2023-03-23T03:17:48;6.03;;;1.00;;
30096;SDS011;16915;51.466;3.610;2023-03-23T03:20:31;5.05;;;1.15;;
30096;SDS011;16915;51.466;3.610;2023-03-23T03:23:00;2.67;;;1.00;;
30096;SDS011;16915;51.466;3.610;2023-03-23T03:25:27;6.50;;;1.10;;
30096;SDS011;16915;51.466;3.610;2023-03-23T03:27:53;6.65;;;1.15;;
30096;SDS011;16915;51.466;3.610;2023-03-23T03:30:21;5.47;;;1.20;;
30096;SDS011;16915;51.466;3.610;2023-03-23T03:32:51;6.63;;;1.20;;
30096;SDS011;16915;51.466;3.610;2023-03-23T03:35:21;4.97;;;1.08;;
30096;SDS011;16915;51.466;3.610;2023-03-23T03:37:48;3.33;;;1.05;;
30096;SDS011;16915;51.466;3.610;2023-03-23T03:40:16;3.42;;;0.90;;
30096;SDS011;16915;51.466;3.610;2023-03-23T03:42:44;4.95;;;1.38;;
30096;SDS011;16915;51.466;3.610;2023-03-23T03:45:11;5.63;;;1.25;;
30096;SDS011;16915;51.466;3.610;2023-03-23T03:47:39;5.75;;;1.20;;
30096;SDS011;16915;51.466;3.610;2023-03-23T03:50:05;6.28;;;1.25;;
30096;SDS011;16915;51.466;3.610;2023-03-23T03:52:31;6.40;;;1.35;;
30096;SDS011;16915;51.466;3.610;2023-03-23T03:54:58;3.30;;;1.00;;
30096;SDS011;16915;51.466;3.610;2023-03-23T03:57:23;6.07;;;1.20;;
30096;SDS011;16915;51.466;3.610;2023-03-23T03:59:49;15.88;;;1.75;;
30096;SDS011;16915;51.466;3.610;2023-03-23T04:02:15;7.18;;;1.13;;
30096;SDS011;16915;51.466;3.610;2023-03-23T04:04:45;6.68;;;1.00;;
30096;SDS011;16915;51.466;3.610;2023-03-23T04:07:14;6.43;;;1.15;;
30096;SDS011;16915;51.466;3.610;2023-03-23T04:09:41;5.38;;;1.15;;
30096;SDS011;16915;51.466;3.610;2023-03-23T04:12:11;7.03;;;1.02;;
30096;SDS011;16915;51.466;3.610;2023-03-23T04:14:37;7.65;;;1.73;;
30096;SDS011;16915;51.466;3.610;2023-03-23T04:17:03;10.43;;;1.80;;
30096;SDS011;16915;51.466;3.610;2023-03-23T04:19:29;5.38;;;1.45;;
30096;SDS011;16915;51.466;3.610;2023-03-23T04:21:57;8.25;;;1.40;;
30096;SDS011;16915;51.466;3.610;2023-03-23T04:24:23;7.80;;;1.40;;
30096;SDS011;16915;51.466;3.610;2023-03-23T04:26:49;6.05;;;1.17;;
30096;SDS011;16915;51.466;3.610;2023-03-23T04:29:19;8.85;;;1.52;;
30096;SDS011;16915;51.466;3.610;2023-03-23T04:31:44;10.90;;;1.60;;
30096;SDS011;16915;51.466;3.610;2023-03-23T04:34:11;12.25;;;1.83;;
30096;SDS011;16915;51.466;3.610;2023-03-23T04:36:39;6.13;;;1.40;;
30096;SDS011;16915;51.466;3.610;2023-03-23T04:39:05;6.60;;;1.40;;
30096;SDS011;16915;51.466;3.610;2023-03-23T04:41:34;6.80;;;1.23;;
30096;SDS011;16915;51.466;3.610;2023-03-23T04:44:04;11.23;;;1.67;;
30096;SDS011;16915;51.466;3.610;2023-03-23T04:46:30;10.63;;;1.85;;
30096;SDS011;16915;51.466;3.610;2023-03-23T04:48:56;3.03;;;1.20;;
30096;SDS011;16915;51.466;3.610;2023-03-23T04:51:26;5.75;;;1.13;;
30096;SDS011;16915;51.466;3.610;2023-03-23T04:53:53;11.88;;;1.38;;
30096;SDS011;16915;51.466;3.610;2023-03-23T04:56:19;10.77;;;1.48;;
30096;SDS011;16915;51.466;3.610;2023-03-23T04:58:45;7.38;;;1.33;;
30096;SDS011;16915;51.466;3.610;2023-03-23T05:01:11;4.90;;;1.40;;
30096;SDS011;16915;51.466;3.610;2023-03-23T05:06:09;10.52;;;1.65;;
30096;SDS011;16915;51.466;3.610;2023-03-23T05:08:35;7.43;;;1.77;;
30096;SDS011;16915;51.466;3.610;2023-03-23T05:11:05;5.95;;;1.45;;
30096;SDS011;16915;51.466;3.610;2023-03-23T05:13:31;9.05;;;1.55;;
30096;SDS011;16915;51.466;3.610;2023-03-23T05:15:57;9.77;;;1.30;;
30096;SDS011;16915;51.466;3.610;2023-03-23T05:18:27;8.32;;;1.60;;
30096;SDS011;16915;51.466;3.610;2023-03-23T05:20:54;10.73;;;1.92;;
30096;SDS011;16915;51.466;3.610;2023-03-23T05:23:19;9.18;;;1.92;;
30096;SDS011;16915;51.466;3.610;2023-03-23T05:25:52;8.85;;;1.83;;
30096;SDS011;16915;51.466;3.610;2023-03-23T05:28:19;14.90;;;1.92;;
30096;SDS011;16915;51.466;3.610;2023-03-23T05:30:46;9.85;;;1.45;;
30096;SDS011;16915;51.466;3.610;2023-03-23T05:33:13;9.98;;;2.33;;
30096;SDS011;16915;51.466;3.610;2023-03-23T05:35:38;9.85;;;1.90;;
30096;SDS011;16915;51.466;3.610;2023-03-23T05:38:04;8.43;;;2.00;;
30096;SDS011;16915;51.466;3.610;2023-03-23T05:40:30;10.00;;;1.58;;
30096;SDS011;16915;51.466;3.610;2023-03-23T05:42:55;7.68;;;1.55;;
30096;SDS011;16915;51.466;3.610;2023-03-23T05:45:23;14.85;;;1.73;;
30096;SDS011;16915;51.466;3.610;2023-03-23T05:47:49;7.55;;;1.85;;
30096;SDS011;16915;51.466;3.610;2023-03-23T05:50:15;13.80;;;2.17;;
30096;SDS011;16915;51.466;3.610;2023-03-23T05:52:42;13.88;;;2.13;;
30096;SDS011;16915;51.466;3.610;2023-03-23T05:55:08;17.52;;;2.00;;
30096;SDS011;16915;51.466;3.610;2023-03-23T05:57:34;13.95;;;2.20;;
30096;SDS011;16915;51.466;3.610;2023-03-23T06:00:00;12.00;;;2.15;;
30096;SDS011;16915;51.466;3.610;2023-03-23T06:02:38;9.13;;;1.77;;
30096;SDS011;16915;51.466;3.610;2023-03-23T06:05:04;15.38;;;2.50;;
30096;SDS011;16915;51.466;3.610;2023-03-23T06:07:30;12.55;;;1.42;;
30096;SDS011;16915;51.466;3.610;2023-03-23T06:09:56;10.07;;;2.30;;
30096;SDS011;16915;51.466;3.610;2023-03-23T06:12:22;6.72;;;1.45;;
30096;SDS011;16915;51.466;3.610;2023-03-23T06:14:48;8.25;;;1.60;;
30096;SDS011;16915;51.466;3.610;2023-03-23T06:17:15;13.15;;;2.10;;
30096;SDS011;16915;51.466;3.610;2023-03-23T06:19:42;10.40;;;2.03;;
30096;SDS011;16915;51.466;3.610;2023-03-23T06:22:08;12.65;;;2.15;;
30096;SDS011;16915;51.466;3.610;2023-03-23T06:24:35;10.02;;;2.38;;
30096;SDS011;16915;51.466;3.610;2023-03-23T06:27:01;9.63;;;1.80;;
30096;SDS011;16915;51.466;3.610;2023-03-23T06:29:26;12.13;;;2.08;;
30096;SDS011;16915;51.466;3.610;2023-03-23T06:31:53;8.32;;;1.73;;
30096;SDS011;16915;51.466;3.610;2023-03-23T06:34:22;12.18;;;1.90;;
30096;SDS011;16915;51.466;3.610;2023-03-23T06:36:48;11.60;;;1.98;;
30096;SDS011;16915;51.466;3.610;2023-03-23T06:39:14;8.02;;;1.95;;
30096;SDS011;16915;51.466;3.610;2023-03-23T06:41:40;15.95;;;2.33;;
30096;SDS011;16915;51.466;3.610;2023-03-23T06:44:06;14.88;;;2.05;;
30096;SDS011;16915;51.466;3.610;2023-03-23T06:46:31;6.80;;;1.73;;
30096;SDS011;16915;51.466;3.610;2023-03-23T06:48:57;10.13;;;1.92;;
30096;SDS011;16915;51.466;3.610;2023-03-23T06:51:23;11.07;;;2.38;;
30096;SDS011;16915;51.466;3.610;2023-03-23T06:53:49;8.68;;;1.80;;
30096;SDS011;16915;51.466;3.610;2023-03-23T06:56:15;10.95;;;2.13;;
30096;SDS011;16915;51.466;3.610;2023-03-23T06:58:41;8.65;;;1.77;;
30096;SDS011;16915;51.466;3.610;2023-03-23T07:01:07;5.45;;;1.55;;
30096;SDS011;16915;51.466;3.610;2023-03-23T07:03:34;8.70;;;1.88;;
30096;SDS011;16915;51.466;3.610;2023-03-23T07:06:00;10.65;;;1.65;;
30096;SDS011;16915;51.466;3.610;2023-03-23T07:08:26;6.72;;;1.40;;
30096;SDS011;16915;51.466;3.610;2023-03-23T07:10:52;7.10;;;1.60;;
30096;SDS011;16915;51.466;3.610;2023-03-23T07:13:19;10.50;;;1.50;;
30096;SDS011;16915;51.466;3.610;2023-03-23T07:15:45;8.70;;;1.75;;
30096;SDS011;16915;51.466;3.610;2023-03-23T07:18:11;12.23;;;1.70;;
30096;SDS011;16915;51.466;3.610;2023-03-23T07:20:37;11.32;;;1.55;;
30096;SDS011;16915;51.466;3.610;2023-03-23T07:23:03;6.45;;;1.17;;
30096;SDS011;16915;51.466;3.610;2023-03-23T07:25:32;5.47;;;1.20;;
30096;SDS011;16915;51.466;3.610;2023-03-23T07:27:58;4.40;;;1.20;;
30096;SDS011;16915;51.466;3.610;2023-03-23T07:30:25;7.43;;;1.50;;
30096;SDS011;16915;51.466;3.610;2023-03-23T07:32:52;3.55;;;1.33;;
30096;SDS011;16915;51.466;3.610;2023-03-23T07:35:17;10.95;;;1.25;;
30096;SDS011;16915;51.466;3.610;2023-03-23T07:37:43;8.02;;;1.70;;
30096;SDS011;16915;51.466;3.610;2023-03-23T07:40:10;11.70;;;1.60;;
30096;SDS011;16915;51.466;3.610;2023-03-23T07:42:43;10.75;;;1.60;;
30096;SDS011;16915;51.466;3.610;2023-03-23T07:45:13;5.25;;;1.65;;
30096;SDS011;16915;51.466;3.610;2023-03-23T07:47:39;8.68;;;1.55;;
30096;SDS011;16915;51.466;3.610;2023-03-23T07:50:05;8.38;;;1.27;;
30096;SDS011;16915;51.466;3.610;2023-03-23T07:52:32;5.68;;;1.40;;
30096;SDS011;16915;51.466;3.610;2023-03-23T07:54:59;11.20;;;1.60;;
30096;SDS011;16915;51.466;3.610;2023-03-23T07:57:27;7.10;;;1.63;;
30096;SDS011;16915;51.466;3.610;2023-03-23T07:59:53;9.93;;;1.85;;
30096;SDS011;16915;51.466;3.610;2023-03-23T08:02:19;11.57;;;1.73;;
30096;SDS011;16915;51.466;3.610;2023-03-23T08:04:45;8.80;;;1.52;;
30096;SDS011;16915;51.466;3.610;2023-03-23T08:07:12;7.00;;;1.23;;
30096;SDS011;16915;51.466;3.610;2023-03-23T08:09:38;11.10;;;1.55;;
30096;SDS011;16915;51.466;3.610;2023-03-23T08:12:04;8.95;;;1.52;;
30096;SDS011;16915;51.466;3.610;2023-03-23T08:14:30;10.90;;;1.70;;
30096;SDS011;16915;51.466;3.610;2023-03-23T08:16:55;8.32;;;1.70;;
30096;SDS011;16915;51.466;3.610;2023-03-23T08:19:22;8.63;;;1.85;;
30096;SDS011;16915;51.466;3.610;2023-03-23T08:21:48;8.52;;;1.60;;
30096;SDS011;16915;51.466;3.610;2023-03-23T08:24:14;11.82;;;2.10;;
30096;SDS011;16915;51.466;3.610;2023-03-23T08:26:39;10.00;;;1.90;;
30096;SDS011;16915;51.466;3.610;2023-03-23T08:29:06;10.52;;;1.88;;
30096;SDS011;16915;51.466;3.610;2023-03-23T08:31:33;10.93;;;1.85;;
30096;SDS011;16915;51.466;3.610;2023-03-23T08:34:03;10.20;;;2.17;;
30096;SDS011;16915;51.466;3.610;2023-03-23T08:36:32;18.35;;;2.28;;
30096;SDS011;16915;51.466;3.610;2023-03-23T08:38:58;21.48;;;2.40;;
30096;SDS011;16915;51.466;3.610;2023-03-23T08:41:24;9.70;;;1.73;;
30096;SDS011;16915;51.466;3.610;2023-03-23T08:43:51;10.85;;;2.03;;
30096;SDS011;16915;51.466;3.610;2023-03-23T08:46:17;10.65;;;1.98;;
30096;SDS011;16915;51.466;3.610;2023-03-23T08:48:44;14.27;;;2.45;;
30096;SDS011;16915;51.466;3.610;2023-03-23T08:51:10;8.18;;;1.85;;
30096;SDS011;16915;51.466;3.610;2023-03-23T08:53:37;10.07;;;1.88;;
30096;SDS011;16915;51.466;3.610;2023-03-23T08:56:04;10.35;;;2.05;;
30096;SDS011;16915;51.466;3.610;2023-03-23T08:58:37;16.02;;;2.20;;
30096;SDS011;16915;51.466;3.610;2023-03-23T09:01:04;10.73;;;1.75;;
30096;SDS011;16915;51.466;3.610;2023-03-23T09:03:32;12.20;;;1.85;;
30096;SDS011;16915;51.466;3.610;2023-03-23T09:06:00;15.25;;;2.20;;
30096;SDS011;16915;51.466;3.610;2023-03-23T09:08:27;8.98;;;1.98;;
30096;SDS011;16915;51.466;3.610;2023-03-23T09:11:04;11.27;;;2.20;;
30096;SDS011;16915;51.466;3.610;2023-03-23T09:13:34;11.38;;;2.22;;
30096;SDS011;16915;51.466;3.610;2023-03-23T09:16:01;12.90;;;2.85;;
30096;SDS011;16915;51.466;3.610;2023-03-23T09:18:28;12.88;;;1.90;;
30096;SDS011;16915;51.466;3.610;2023-03-23T09:20:54;20.15;;;2.70;;
30096;SDS011;16915;51.466;3.610;2023-03-23T09:23:20;16.38;;;2.70;;
30096;SDS011;16915;51.466;3.610;2023-03-23T09:25:46;16.85;;;2.40;;
30096;SDS011;16915;51.466;3.610;2023-03-23T09:28:13;10.50;;;2.03;;
30096;SDS011;16915;51.466;3.610;2023-03-23T09:30:39;10.95;;;2.05;;
30096;SDS011;16915;51.466;3.610;2023-03-23T09:33:06;16.50;;;2.13;;
30096;SDS011;16915;51.466;3.610;2023-03-23T09:35:33;12.45;;;2.58;;
30096;SDS011;16915;51.466;3.610;2023-03-23T09:38:00;16.30;;;2.60;;
30096;SDS011;16915;51.466;3.610;2023-03-23T09:43:24;17.58;;;2.63;;
30096;SDS011;16915;51.466;3.610;2023-03-23T09:48:51;15.23;;;2.45;;
30096;SDS011;16915;51.466;3.610;2023-03-23T09:51:36;15.55;;;2.25;;
30096;SDS011;16915;51.466;3.610;2023-03-23T09:56:55;9.35;;;1.60;;
30096;SDS011;16915;51.466;3.610;2023-03-23T10:01:49;12.57;;;1.40;;
30096;SDS011;16915;51.466;3.610;2023-03-23T10:07:09;9.57;;;1.65;;
30096;SDS011;16915;51.466;3.610;2023-03-23T10:09:41;20.77;;;2.10;;
30096;SDS011;16915;51.466;3.610;2023-03-23T10:17:33;10.85;;;1.48;;
30096;SDS011;16915;51.466;3.610;2023-03-23T10:20:53;5.55;;;1.50;;
30096;SDS011;16915;51.466;3.610;2023-03-23T10:25:41;8.30;;;1.40;;
30096;SDS011;16915;51.466;3.610;2023-03-23T10:28:13;10.38;;;1.60;;
30096;SDS011;16915;51.466;3.610;2023-03-23T10:30:45;13.52;;;1.83;;
30096;SDS011;16915;51.466;3.610;2023-03-23T10:35:58;6.50;;;1.52;;
30096;SDS011;16915;51.466;3.610;2023-03-23T10:38:41;5.35;;;1.13;;
30096;SDS011;16915;51.466;3.610;2023-03-23T10:41:11;8.65;;;1.40;;
30096;SDS011;16915;51.466;3.610;2023-03-23T10:43:39;10.07;;;1.63;;
30096;SDS011;16915;51.466;3.610;2023-03-23T10:46:11;7.00;;;1.90;;
30096;SDS011;16915;51.466;3.610;2023-03-23T10:48:43;9.88;;;1.40;;
30096;SDS011;16915;51.466;3.610;2023-03-23T10:51:10;11.25;;;1.55;;
30096;SDS011;16915;51.466;3.610;2023-03-23T10:54:00;8.15;;;1.90;;
30096;SDS011;16915;51.466;3.610;2023-03-23T10:56:27;8.80;;;1.83;;
30096;SDS011;16915;51.466;3.610;2023-03-23T11:01:45;6.10;;;1.90;;
30096;SDS011;16915;51.466;3.610;2023-03-23T11:04:16;7.82;;;1.77;;
30096;SDS011;16915;51.466;3.610;2023-03-23T11:06:46;5.50;;;1.45;;
30096;SDS011;16915;51.466;3.610;2023-03-23T11:09:15;10.88;;;2.17;;
30096;SDS011;16915;51.466;3.610;2023-03-23T11:11:43;7.78;;;2.00;;
30096;SDS011;16915;51.466;3.610;2023-03-23T11:14:18;9.73;;;2.10;;
30096;SDS011;16915;51.466;3.610;2023-03-23T11:16:53;10.15;;;1.40;;
30096;SDS011;16915;51.466;3.610;2023-03-23T11:19:22;8.20;;;1.63;;
30096;SDS011;16915;51.466;3.610;2023-03-23T11:21:53;9.48;;;1.80;;
30096;SDS011;16915;51.466;3.610;2023-03-23T11:25:15;11.02;;;1.90;;
30096;SDS011;16915;51.466;3.610;2023-03-23T11:27:21;8.05;;;1.70;;
30096;SDS011;16915;51.466;3.610;2023-03-23T11:29:54;7.97;;;1.67;;
30096;SDS011;16915;51.466;3.610;2023-03-23T11:32:24;8.70;;;2.08;;
30096;SDS011;16915;51.466;3.610;2023-03-23T11:34:57;6.10;;;1.30;;
30096;SDS011;16915;51.466;3.610;2023-03-23T11:37:32;5.78;;;1.42;;
30096;SDS011;16915;51.466;3.610;2023-03-23T11:42:44;8.32;;;1.13;;
30096;SDS011;16915;51.466;3.610;2023-03-23T11:51:04;9.35;;;1.33;;
30096;SDS011;16915;51.466;3.610;2023-03-23T11:56:34;8.90;;;1.27;;
30096;SDS011;16915;51.466;3.610;2023-03-23T11:59:02;9.18;;;1.58;;
30096;SDS011;16915;51.466;3.610;2023-03-23T12:04:39;6.82;;;1.45;;
30096;SDS011;16915;51.466;3.610;2023-03-23T12:10:14;14.48;;;1.92;;
30096;SDS011;16915;51.466;3.610;2023-03-23T12:19:02;13.90;;;2.35;;
30096;SDS011;16915;51.466;3.610;2023-03-23T12:24:24;3.83;;;1.30;;
30096;SDS011;16915;51.466;3.610;2023-03-23T12:27:11;6.05;;;1.10;;
30096;SDS011;16915;51.466;3.610;2023-03-23T12:29:52;4.95;;;1.20;;
30096;SDS011;16915;51.466;3.610;2023-03-23T12:40:16;5.57;;;1.58;;
30096;SDS011;16915;51.466;3.610;2023-03-23T12:43:03;8.70;;;1.77;;
30096;SDS011;16915;51.466;3.610;2023-03-23T12:45:50;8.40;;;1.77;;
30096;SDS011;16915;51.466;3.610;2023-03-23T12:48:32;6.70;;;1.67;;
30096;SDS011;16915;51.466;3.610;2023-03-23T12:53:46;7.65;;;2.05;;
30096;SDS011;16915;51.466;3.610;2023-03-23T12:56:23;11.38;;;1.73;;
30096;SDS011;16915;51.466;3.610;2023-03-23T13:04:51;12.15;;;1.92;;
30096;SDS011;16915;51.466;3.610;2023-03-23T13:07:39;8.95;;;1.77;;
30096;SDS011;16915;51.466;3.610;2023-03-23T13:12:38;10.18;;;1.92;;
30096;SDS011;16915;51.466;3.610;2023-03-23T13:20:33;8.25;;;2.35;;
30096;SDS011;16915;51.466;3.610;2023-03-23T13:23:19;8.55;;;2.03;;
30096;SDS011;16915;51.466;3.610;2023-03-23T13:25:58;10.75;;;1.75;;
30096;SDS011;16915;51.466;3.610;2023-03-23T13:28:33;7.43;;;2.03;;
30096;SDS011;16915;51.466;3.610;2023-03-23T13:31:14;4.53;;;1.80;;
30096;SDS011;16915;51.466;3.610;2023-03-23T13:33:51;6.63;;;1.85;;
30096;SDS011;16915;51.466;3.610;2023-03-23T13:36:25;8.30;;;2.08;;
30096;SDS011;16915;51.466;3.610;2023-03-23T13:38:56;5.93;;;2.30;;
30096;SDS011;16915;51.466;3.610;2023-03-23T13:41:24;10.07;;;2.25;;
30096;SDS011;16915;51.466;3.610;2023-03-23T13:43:52;6.97;;;2.20;;
30096;SDS011;16915;51.466;3.610;2023-03-23T13:46:30;9.02;;;1.90;;
30096;SDS011;16915;51.466;3.610;2023-03-23T13:49:03;8.23;;;2.42;;
30096;SDS011;16915;51.466;3.610;2023-03-23T14:00:09;11.07;;;2.55;;
30096;SDS011;16915;51.466;3.610;2023-03-23T14:02:40;9.68;;;2.17;;
30096;SDS011;16915;51.466;3.610;2023-03-23T14:08:44;11.88;;;2.60;;
30096;SDS011;16915;51.466;3.610;2023-03-23T14:10:43;11.35;;;2.30;;
30096;SDS011;16915;51.466;3.610;2023-03-23T14:13:20;11.70;;;2.75;;
30096;SDS011;16915;51.466;3.610;2023-03-23T14:16:00;13.82;;;3.10;;
30096;SDS011;16915;51.466;3.610;2023-03-23T14:18:40;13.43;;;2.47;;
30096;SDS011;16915;51.466;3.610;2023-03-23T14:21:13;12.13;;;2.45;;
30096;SDS011;16915;51.466;3.610;2023-03-23T14:23:51;12.73;;;2.78;;
30096;SDS011;16915;51.466;3.610;2023-03-23T14:26:17;14.68;;;2.42;;
30096;SDS011;16915;51.466;3.610;2023-03-23T14:28:45;16.15;;;2.88;;
30096;SDS011;16915;51.466;3.610;2023-03-23T14:31:22;9.13;;;2.95;;
30096;SDS011;16915;51.466;3.610;2023-03-23T14:33:49;12.32;;;2.95;;
30096;SDS011;16915;51.466;3.610;2023-03-23T14:36:20;10.20;;;2.60;;
30096;SDS011;16915;51.466;3.610;2023-03-23T14:38:48;14.68;;;2.90;;
30096;SDS011;16915;51.466;3.610;2023-03-23T14:41:46;10.40;;;1.90;;
30096;SDS011;16915;51.466;3.610;2023-03-23T14:44:14;10.30;;;2.50;;
30096;SDS011;16915;51.466;3.610;2023-03-23T14:46:45;10.15;;;2.05;;
30096;SDS011;16915;51.466;3.610;2023-03-23T14:49:12;9.70;;;2.60;;
30096;SDS011;16915;51.466;3.610;2023-03-23T14:51:47;13.88;;;2.35;;
30096;SDS011;16915;51.466;3.610;2023-03-23T14:54:19;10.15;;;2.08;;
30096;SDS011;16915;51.466;3.610;2023-03-23T14:56:53;13.05;;;2.30;;
30096;SDS011;16915;51.466;3.610;2023-03-23T14:59:19;11.13;;;2.10;;
30096;SDS011;16915;51.466;3.610;2023-03-23T15:01:46;11.32;;;1.98;;
30096;SDS011;16915;51.466;3.610;2023-03-23T15:04:18;11.23;;;2.58;;
30096;SDS011;16915;51.466;3.610;2023-03-23T15:06:47;15.85;;;2.72;;
30096;SDS011;16915;51.466;3.610;2023-03-23T15:09:20;12.77;;;1.90;;
30096;SDS011;16915;51.466;3.610;2023-03-23T15:11:59;10.80;;;2.25;;
30096;SDS011;16915;51.466;3.610;2023-03-23T15:14:30;18.65;;;2.42;;
30096;SDS011;16915;51.466;3.610;2023-03-23T15:17:23;13.02;;;2.67;;
30096;SDS011;16915;51.466;3.610;2023-03-23T15:19:51;12.20;;;2.85;;
30096;SDS011;16915;51.466;3.610;2023-03-23T15:22:26;14.50;;;2.42;;
30096;SDS011;16915;51.466;3.610;2023-03-23T15:25:12;9.43;;;2.20;;
30096;SDS011;16915;51.466;3.610;2023-03-23T15:27:55;9.25;;;2.25;;
30096;SDS011;16915;51.466;3.610;2023-03-23T15:32:51;9.50;;;2.97;;
30096;SDS011;16915;51.466;3.610;2023-03-23T15:35:25;10.20;;;2.13;;
30096;SDS011;16915;51.466;3.610;2023-03-23T15:37:53;11.52;;;1.85;;
30096;SDS011;16915;51.466;3.610;2023-03-23T15:40:24;8.80;;;1.70;;
30096;SDS011;16915;51.466;3.610;2023-03-23T15:43:05;11.82;;;2.42;;
30096;SDS011;16915;51.466;3.610;2023-03-23T15:45:33;12.50;;;2.70;;
30096;SDS011;16915;51.466;3.610;2023-03-23T15:48:05;11.98;;;2.33;;
30096;SDS011;16915;51.466;3.610;2023-03-23T15:50:38;8.63;;;1.80;;
30096;SDS011;16915;51.466;3.610;2023-03-23T15:55:53;11.70;;;2.60;;
30096;SDS011;16915;51.466;3.610;2023-03-23T15:58:19;8.80;;;1.95;;
30096;SDS011;16915;51.466;3.610;2023-03-23T16:00:45;12.77;;;2.70;;
30096;SDS011;16915;51.466;3.610;2023-03-23T16:03:22;15.10;;;2.80;;
30096;SDS011;16915;51.466;3.610;2023-03-23T16:05:51;6.90;;;1.63;;
30096;SDS011;16915;51.466;3.610;2023-03-23T16:08:18;13.65;;;2.63;;
30096;SDS011;16915;51.466;3.610;2023-03-23T16:10:44;10.15;;;2.28;;
30096;SDS011;16915;51.466;3.610;2023-03-23T16:13:10;8.60;;;1.80;;
30096;SDS011;16915;51.466;3.610;2023-03-23T16:15:35;14.77;;;2.33;;
30096;SDS011;16915;51.466;3.610;2023-03-23T16:18:01;7.60;;;2.10;;
30096;SDS011;16915;51.466;3.610;2023-03-23T16:20:27;9.75;;;2.10;;
30096;SDS011;16915;51.466;3.610;2023-03-23T16:22:54;9.15;;;2.20;;
30096;SDS011;16915;51.466;3.610;2023-03-23T16:25:20;9.63;;;2.17;;
30096;SDS011;16915;51.466;3.610;2023-03-23T16:27:46;7.68;;;1.88;;
30096;SDS011;16915;51.466;3.610;2023-03-23T16:32:50;11.02;;;2.00;;
30096;SDS011;16915;51.466;3.610;2023-03-23T16:35:16;10.18;;;1.95;;
30096;SDS011;16915;51.466;3.610;2023-03-23T16:37:45;12.10;;;2.03;;
30096;SDS011;16915;51.466;3.610;2023-03-23T16:40:17;7.57;;;2.55;;
30096;SDS011;16915;51.466;3.610;2023-03-23T16:42:43;7.05;;;2.05;;
30096;SDS011;16915;51.466;3.610;2023-03-23T16:45:09;6.15;;;1.75;;
30096;SDS011;16915;51.466;3.610;2023-03-23T16:47:36;10.18;;;2.00;;
30096;SDS011;16915;51.466;3.610;2023-03-23T16:50:02;9.73;;;1.95;;
30096;SDS011;16915;51.466;3.610;2023-03-23T16:52:30;6.63;;;1.67;;
30096;SDS011;16915;51.466;3.610;2023-03-23T16:54:56;8.07;;;1.40;;
30096;SDS011;16915;51.466;3.610;2023-03-23T16:57:22;10.40;;;2.78;;
30096;SDS011;16915;51.466;3.610;2023-03-23T16:59:48;8.88;;;1.92;;
30096;SDS011;16915;51.466;3.610;2023-03-23T17:02:13;10.48;;;2.08;;
30096;SDS011;16915;51.466;3.610;2023-03-23T17:04:43;13.02;;;2.15;;
30096;SDS011;16915;51.466;3.610;2023-03-23T17:07:10;8.90;;;2.20;;